sensor_id;sensor_type;location;lat;lon;timestamp;P1;durP1;ratioP1;P2;durP2;ratioP2
17171;SDS011;8701;50.150;8.756;2023-02-28T00:03:59;2.63;;;2.43;;
17171;SDS011;8701;50.150;8.756;2023-02-28T00:08:01;2.80;;;2.37;;
17171;SDS011;8701;50.150;8.756;2023-02-28T00:12:04;2.30;;;2.10;;
17171;SDS011;8701;50.150;8.756;2023-02-28T00:16:12;4.70;;;2.67;;
17171;SDS011;8701;50.150;8.756;2023-02-28T00:20:20;3.00;;;2.80;;
17171;SDS011;8701;50.150;8.756;2023-02-28T00:24:22;3.13;;;2.33;;
17171;SDS011;8701;50.150;8.756;2023-02-28T00:28:25;6.57;;;2.83;;
17171;SDS011;8701;50.150;8.756;2023-02-28T00:32:28;4.00;;;2.47;;
17171;SDS011;8701;50.150;8.756;2023-02-28T00:36:31;3.30;;;2.57;;
17171;SDS011;8701;50.150;8.756;2023-02-28T00:40:33;2.50;;;2.30;;
17171;SDS011;8701;50.150;8.756;2023-02-28T00:44:36;2.73;;;2.40;;
17171;SDS011;8701;50.150;8.756;2023-02-28T00:48:39;5.03;;;2.60;;
17171;SDS011;8701;50.150;8.756;2023-02-28T00:52:41;2.57;;;2.27;;
17171;SDS011;8701;50.150;8.756;2023-02-28T00:56:44;3.03;;;2.80;;
17171;SDS011;8701;50.150;8.756;2023-02-28T01:00:47;3.07;;;2.80;;
17171;SDS011;8701;50.150;8.756;2023-02-28T01:04:50;3.00;;;2.80;;
17171;SDS011;8701;50.150;8.756;2023-02-28T01:08:53;4.10;;;2.77;;
17171;SDS011;8701;50.150;8.756;2023-02-28T01:12:55;3.03;;;2.83;;
17171;SDS011;8701;50.150;8.756;2023-02-28T01:16:57;3.00;;;2.80;;
17171;SDS011;8701;50.150;8.756;2023-02-28T01:21:04;3.13;;;2.80;;
17171;SDS011;8701;50.150;8.756;2023-02-28T01:25:07;3.10;;;2.87;;
17171;SDS011;8701;50.150;8.756;2023-02-28T01:29:09;4.30;;;2.90;;
17171;SDS011;8701;50.150;8.756;2023-02-28T01:33:12;3.33;;;3.03;;
17171;SDS011;8701;50.150;8.756;2023-02-28T01:37:15;2.97;;;2.70;;
17171;SDS011;8701;50.150;8.756;2023-02-28T01:41:19;4.03;;;3.50;;
17171;SDS011;8701;50.150;8.756;2023-02-28T01:45:23;7.77;;;3.63;;
17171;SDS011;8701;50.150;8.756;2023-02-28T01:49:28;3.43;;;3.17;;
17171;SDS011;8701;50.150;8.756;2023-02-28T01:53:34;3.87;;;2.93;;
17171;SDS011;8701;50.150;8.756;2023-02-28T01:57:40;3.23;;;2.93;;
17171;SDS011;8701;50.150;8.756;2023-02-28T02:01:45;3.63;;;3.10;;
17171;SDS011;8701;50.150;8.756;2023-02-28T02:05:48;2.93;;;2.67;;
17171;SDS011;8701;50.150;8.756;2023-02-28T02:09:56;2.70;;;2.50;;
17171;SDS011;8701;50.150;8.756;2023-02-28T02:14:06;3.10;;;2.90;;
17171;SDS011;8701;50.150;8.756;2023-02-28T02:18:22;4.00;;;2.83;;
17171;SDS011;8701;50.150;8.756;2023-02-28T02:27:22;4.90;;;3.00;;
17171;SDS011;8701;50.150;8.756;2023-02-28T02:31:48;3.10;;;2.80;;
17171;SDS011;8701;50.150;8.756;2023-02-28T02:36:02;3.07;;;2.77;;
17171;SDS011;8701;50.150;8.756;2023-02-28T02:40:10;2.70;;;2.50;;
17171;SDS011;8701;50.150;8.756;2023-02-28T02:44:27;2.77;;;2.57;;
17171;SDS011;8701;50.150;8.756;2023-02-28T02:49:18;2.90;;;2.60;;
17171;SDS011;8701;50.150;8.756;2023-02-28T02:53:47;3.30;;;2.67;;
17171;SDS011;8701;50.150;8.756;2023-02-28T02:58:27;2.30;;;2.10;;
17171;SDS011;8701;50.150;8.756;2023-02-28T03:03:15;2.33;;;2.13;;
17171;SDS011;8701;50.150;8.756;2023-02-28T03:07:39;2.80;;;2.30;;
17171;SDS011;8701;50.150;8.756;2023-02-28T03:12:08;5.47;;;2.57;;
17171;SDS011;8701;50.150;8.756;2023-02-28T03:17:16;5.67;;;2.80;;
17171;SDS011;8701;50.150;8.756;2023-02-28T03:27:15;2.60;;;2.40;;
17171;SDS011;8701;50.150;8.756;2023-02-28T03:31:59;2.50;;;2.40;;
17171;SDS011;8701;50.150;8.756;2023-02-28T03:36:26;2.50;;;2.30;;
17171;SDS011;8701;50.150;8.756;2023-02-28T03:41:05;2.30;;;2.20;;
17171;SDS011;8701;50.150;8.756;2023-02-28T03:45:30;2.67;;;2.47;;
17171;SDS011;8701;50.150;8.756;2023-02-28T03:50:53;2.83;;;1.93;;
17171;SDS011;8701;50.150;8.756;2023-02-28T04:12:52;2.23;;;2.03;;
17171;SDS011;8701;50.150;8.756;2023-02-28T05:17:47;2.20;;;1.87;;
17171;SDS011;8701;50.150;8.756;2023-02-28T05:21:49;2.37;;;2.00;;
17171;SDS011;8701;50.150;8.756;2023-02-28T05:25:53;2.43;;;2.23;;
17171;SDS011;8701;50.150;8.756;2023-02-28T06:13:56;2.90;;;2.60;;
17171;SDS011;8701;50.150;8.756;2023-02-28T06:18:28;3.57;;;1.93;;
17171;SDS011;8701;50.150;8.756;2023-02-28T06:22:33;2.43;;;1.87;;
17171;SDS011;8701;50.150;8.756;2023-02-28T06:26:40;2.20;;;2.10;;
17171;SDS011;8701;50.150;8.756;2023-02-28T06:31:21;6.00;;;2.40;;
17171;SDS011;8701;50.150;8.756;2023-02-28T06:35:29;2.43;;;1.87;;
17171;SDS011;8701;50.150;8.756;2023-02-28T06:39:32;2.33;;;2.13;;
17171;SDS011;8701;50.150;8.756;2023-02-28T06:43:35;2.47;;;2.27;;
17171;SDS011;8701;50.150;8.756;2023-02-28T06:47:41;2.80;;;2.03;;
17171;SDS011;8701;50.150;8.756;2023-02-28T06:51:44;2.43;;;2.17;;
17171;SDS011;8701;50.150;8.756;2023-02-28T07:11:35;2.73;;;2.43;;
17171;SDS011;8701;50.150;8.756;2023-02-28T07:16:31;3.87;;;2.83;;
17171;SDS011;8701;50.150;8.756;2023-02-28T07:20:58;2.80;;;2.43;;
17171;SDS011;8701;50.150;8.756;2023-02-28T07:29:12;3.10;;;2.80;;
17171;SDS011;8701;50.150;8.756;2023-02-28T07:33:38;5.90;;;3.20;;
17171;SDS011;8701;50.150;8.756;2023-02-28T07:39:04;4.50;;;3.00;;
17171;SDS011;8701;50.150;8.756;2023-02-28T07:44:39;2.90;;;2.70;;
17171;SDS011;8701;50.150;8.756;2023-02-28T07:48:17;2.90;;;2.60;;
17171;SDS011;8701;50.150;8.756;2023-02-28T07:52:22;2.90;;;2.70;;
17171;SDS011;8701;50.150;8.756;2023-02-28T07:56:25;2.50;;;2.30;;
17171;SDS011;8701;50.150;8.756;2023-02-28T08:00:35;3.00;;;2.80;;
17171;SDS011;8701;50.150;8.756;2023-02-28T08:04:52;3.10;;;2.80;;
17171;SDS011;8701;50.150;8.756;2023-02-28T08:08:54;2.53;;;2.33;;
17171;SDS011;8701;50.150;8.756;2023-02-28T08:12:57;3.93;;;2.50;;
17171;SDS011;8701;50.150;8.756;2023-02-28T08:16:59;3.10;;;2.80;;
17171;SDS011;8701;50.150;8.756;2023-02-28T08:26:40;3.60;;;3.10;;
17171;SDS011;8701;50.150;8.756;2023-02-28T08:30:42;3.37;;;2.80;;
17171;SDS011;8701;50.150;8.756;2023-02-28T08:34:44;3.40;;;2.83;;
17171;SDS011;8701;50.150;8.756;2023-02-28T08:38:47;3.83;;;2.70;;
17171;SDS011;8701;50.150;8.756;2023-02-28T08:42:50;3.60;;;2.83;;
17171;SDS011;8701;50.150;8.756;2023-02-28T08:46:52;4.50;;;2.90;;
17171;SDS011;8701;50.150;8.756;2023-02-28T08:55:28;4.57;;;2.70;;
17171;SDS011;8701;50.150;8.756;2023-02-28T08:59:34;3.17;;;2.90;;
17171;SDS011;8701;50.150;8.756;2023-02-28T09:03:40;3.53;;;2.60;;
17171;SDS011;8701;50.150;8.756;2023-02-28T09:07:59;4.80;;;2.87;;
17171;SDS011;8701;50.150;8.756;2023-02-28T09:12:05;3.20;;;2.90;;
17171;SDS011;8701;50.150;8.756;2023-02-28T09:16:10;3.17;;;2.87;;
17171;SDS011;8701;50.150;8.756;2023-02-28T09:20:16;3.03;;;2.73;;
17171;SDS011;8701;50.150;8.756;2023-02-28T09:24:19;3.20;;;2.90;;
17171;SDS011;8701;50.150;8.756;2023-02-28T09:28:22;4.00;;;2.90;;
17171;SDS011;8701;50.150;8.756;2023-02-28T09:32:26;3.40;;;3.00;;
17171;SDS011;8701;50.150;8.756;2023-02-28T09:36:28;2.80;;;2.60;;
17171;SDS011;8701;50.150;8.756;2023-02-28T09:40:31;3.77;;;2.87;;
17171;SDS011;8701;50.150;8.756;2023-02-28T09:44:37;3.33;;;2.80;;
17171;SDS011;8701;50.150;8.756;2023-02-28T09:48:44;3.10;;;2.87;;
17171;SDS011;8701;50.150;8.756;2023-02-28T09:52:52;3.90;;;3.30;;
17171;SDS011;8701;50.150;8.756;2023-02-28T09:56:57;3.70;;;2.77;;
17171;SDS011;8701;50.150;8.756;2023-02-28T10:01:04;5.97;;;3.47;;
17171;SDS011;8701;50.150;8.756;2023-02-28T10:05:15;5.17;;;3.27;;
17171;SDS011;8701;50.150;8.756;2023-02-28T10:09:21;4.23;;;3.10;;
17171;SDS011;8701;50.150;8.756;2023-02-28T10:13:37;3.20;;;2.97;;
17171;SDS011;8701;50.150;8.756;2023-02-28T10:18:30;4.63;;;3.10;;
17171;SDS011;8701;50.150;8.756;2023-02-28T10:22:44;3.53;;;3.23;;
17171;SDS011;8701;50.150;8.756;2023-02-28T10:26:56;3.37;;;3.07;;
17171;SDS011;8701;50.150;8.756;2023-02-28T10:41:36;4.07;;;3.43;;
17171;SDS011;8701;50.150;8.756;2023-02-28T10:45:59;3.00;;;2.80;;
17171;SDS011;8701;50.150;8.756;2023-02-28T10:50:04;3.70;;;2.97;;
17171;SDS011;8701;50.150;8.756;2023-02-28T10:58:44;3.30;;;3.00;;
17171;SDS011;8701;50.150;8.756;2023-02-28T11:02:55;4.80;;;3.03;;
17171;SDS011;8701;50.150;8.756;2023-02-28T11:07:21;4.57;;;3.30;;
17171;SDS011;8701;50.150;8.756;2023-02-28T11:21:15;4.10;;;3.53;;
17171;SDS011;8701;50.150;8.756;2023-02-28T11:25:21;4.27;;;3.60;;
17171;SDS011;8701;50.150;8.756;2023-02-28T11:29:37;7.10;;;3.40;;
17171;SDS011;8701;50.150;8.756;2023-02-28T11:33:50;4.30;;;3.50;;
17171;SDS011;8701;50.150;8.756;2023-02-28T11:38:16;6.50;;;3.50;;
17171;SDS011;8701;50.150;8.756;2023-02-28T11:42:50;6.23;;;3.90;;
17171;SDS011;8701;50.150;8.756;2023-02-28T12:02:24;4.13;;;3.67;;
17171;SDS011;8701;50.150;8.756;2023-02-28T12:06:31;4.40;;;3.70;;
17171;SDS011;8701;50.150;8.756;2023-02-28T12:10:43;4.60;;;4.20;;
17171;SDS011;8701;50.150;8.756;2023-02-28T12:19:39;5.00;;;4.03;;
17171;SDS011;8701;50.150;8.756;2023-02-28T12:23:54;7.27;;;4.00;;
17171;SDS011;8701;50.150;8.756;2023-02-28T12:28:08;5.40;;;4.53;;
17171;SDS011;8701;50.150;8.756;2023-02-28T12:32:14;4.80;;;4.37;;
17171;SDS011;8701;50.150;8.756;2023-02-28T12:36:32;5.40;;;4.90;;
17171;SDS011;8701;50.150;8.756;2023-02-28T12:40:41;4.47;;;4.00;;
17171;SDS011;8701;50.150;8.756;2023-02-28T12:44:49;5.60;;;4.60;;
17171;SDS011;8701;50.150;8.756;2023-02-28T12:49:04;4.33;;;3.50;;
17171;SDS011;8701;50.150;8.756;2023-02-28T12:53:13;4.40;;;3.90;;
17171;SDS011;8701;50.150;8.756;2023-02-28T12:57:27;5.70;;;4.10;;
17171;SDS011;8701;50.150;8.756;2023-02-28T13:07:13;3.70;;;3.40;;
17171;SDS011;8701;50.150;8.756;2023-02-28T13:11:43;5.60;;;3.90;;
17171;SDS011;8701;50.150;8.756;2023-02-28T13:15:57;6.33;;;3.80;;
17171;SDS011;8701;50.150;8.756;2023-02-28T13:20:01;4.87;;;4.10;;
17171;SDS011;8701;50.150;8.756;2023-02-28T13:24:04;4.17;;;3.77;;
17171;SDS011;8701;50.150;8.756;2023-02-28T13:28:10;4.33;;;3.93;;
17171;SDS011;8701;50.150;8.756;2023-02-28T13:32:18;3.77;;;3.47;;
17171;SDS011;8701;50.150;8.756;2023-02-28T13:36:29;4.70;;;4.30;;
17171;SDS011;8701;50.150;8.756;2023-02-28T13:40:32;5.20;;;4.47;;
17171;SDS011;8701;50.150;8.756;2023-02-28T13:49:23;5.03;;;4.47;;
17171;SDS011;8701;50.150;8.756;2023-02-28T13:53:50;3.90;;;3.47;;
17171;SDS011;8701;50.150;8.756;2023-02-28T13:58:15;5.20;;;4.30;;
17171;SDS011;8701;50.150;8.756;2023-02-28T14:02:35;8.10;;;4.67;;
17171;SDS011;8701;50.150;8.756;2023-02-28T14:07:00;5.60;;;4.50;;
17171;SDS011;8701;50.150;8.756;2023-02-28T14:11:25;5.13;;;4.30;;
17171;SDS011;8701;50.150;8.756;2023-02-28T14:15:44;4.60;;;4.20;;
17171;SDS011;8701;50.150;8.756;2023-02-28T14:19:49;6.70;;;5.17;;
17171;SDS011;8701;50.150;8.756;2023-02-28T14:28:34;5.30;;;4.63;;
17171;SDS011;8701;50.150;8.756;2023-02-28T14:32:50;5.80;;;4.93;;
17171;SDS011;8701;50.150;8.756;2023-02-28T14:37:00;5.50;;;4.33;;
17171;SDS011;8701;50.150;8.756;2023-02-28T14:41:11;6.50;;;4.30;;
17171;SDS011;8701;50.150;8.756;2023-02-28T14:45:20;6.70;;;5.50;;
17171;SDS011;8701;50.150;8.756;2023-02-28T14:49:25;4.57;;;4.17;;
17171;SDS011;8701;50.150;8.756;2023-02-28T14:53:30;5.27;;;4.53;;
17171;SDS011;8701;50.150;8.756;2023-02-28T14:57:41;6.10;;;4.60;;
17171;SDS011;8701;50.150;8.756;2023-02-28T15:01:51;7.73;;;4.60;;
17171;SDS011;8701;50.150;8.756;2023-02-28T15:05:54;4.37;;;3.93;;
17171;SDS011;8701;50.150;8.756;2023-02-28T15:10:09;5.70;;;4.67;;
17171;SDS011;8701;50.150;8.756;2023-02-28T15:14:18;7.10;;;4.80;;
17171;SDS011;8701;50.150;8.756;2023-02-28T15:18:24;7.10;;;4.47;;
17171;SDS011;8701;50.150;8.756;2023-02-28T15:22:33;5.43;;;4.67;;
17171;SDS011;8701;50.150;8.756;2023-02-28T15:26:39;5.10;;;4.27;;
17171;SDS011;8701;50.150;8.756;2023-02-28T15:30:53;6.70;;;4.90;;
17171;SDS011;8701;50.150;8.756;2023-02-28T15:34:58;5.73;;;4.67;;
17171;SDS011;8701;50.150;8.756;2023-02-28T15:39:19;6.40;;;4.50;;
17171;SDS011;8701;50.150;8.756;2023-02-28T15:43:23;6.13;;;4.80;;
17171;SDS011;8701;50.150;8.756;2023-02-28T15:47:29;6.03;;;4.60;;
17171;SDS011;8701;50.150;8.756;2023-02-28T15:51:47;10.77;;;4.47;;
17171;SDS011;8701;50.150;8.756;2023-02-28T15:55:59;5.00;;;4.50;;
17171;SDS011;8701;50.150;8.756;2023-02-28T16:00:14;5.80;;;4.80;;
17171;SDS011;8701;50.150;8.756;2023-02-28T16:04:30;5.30;;;4.80;;
17171;SDS011;8701;50.150;8.756;2023-02-28T16:08:41;8.70;;;4.87;;
17171;SDS011;8701;50.150;8.756;2023-02-28T16:14:27;6.03;;;4.70;;
17171;SDS011;8701;50.150;8.756;2023-02-28T16:23:12;6.10;;;4.07;;
17171;SDS011;8701;50.150;8.756;2023-02-28T16:27:16;9.70;;;4.90;;
17171;SDS011;8701;50.150;8.756;2023-02-28T16:36:31;7.60;;;4.50;;
17171;SDS011;8701;50.150;8.756;2023-02-28T16:40:49;6.10;;;4.17;;
17171;SDS011;8701;50.150;8.756;2023-02-28T16:45:04;5.40;;;4.03;;
17171;SDS011;8701;50.150;8.756;2023-02-28T16:49:15;6.17;;;4.33;;
17171;SDS011;8701;50.150;8.756;2023-02-28T16:53:51;7.13;;;4.80;;
17171;SDS011;8701;50.150;8.756;2023-02-28T16:58:10;6.20;;;4.47;;
17171;SDS011;8701;50.150;8.756;2023-02-28T17:02:18;5.30;;;4.27;;
17171;SDS011;8701;50.150;8.756;2023-02-28T17:06:22;6.70;;;4.63;;
17171;SDS011;8701;50.150;8.756;2023-02-28T17:10:28;5.43;;;4.37;;
17171;SDS011;8701;50.150;8.756;2023-02-28T17:14:32;5.90;;;4.50;;
17171;SDS011;8701;50.150;8.756;2023-02-28T17:18:34;7.80;;;5.13;;
17171;SDS011;8701;50.150;8.756;2023-02-28T17:22:37;9.17;;;5.20;;
17171;SDS011;8701;50.150;8.756;2023-02-28T17:26:46;8.80;;;5.43;;
17171;SDS011;8701;50.150;8.756;2023-02-28T17:30:51;10.10;;;5.80;;
17171;SDS011;8701;50.150;8.756;2023-02-28T17:34:53;8.00;;;6.20;;
17171;SDS011;8701;50.150;8.756;2023-02-28T17:38:55;8.47;;;5.37;;
17171;SDS011;8701;50.150;8.756;2023-02-28T17:42:59;8.90;;;5.20;;
17171;SDS011;8701;50.150;8.756;2023-02-28T17:47:03;6.40;;;4.30;;
17171;SDS011;8701;50.150;8.756;2023-02-28T17:51:06;8.50;;;5.33;;
17171;SDS011;8701;50.150;8.756;2023-02-28T17:55:08;6.60;;;4.80;;
17171;SDS011;8701;50.150;8.756;2023-02-28T17:59:12;6.97;;;4.93;;
17171;SDS011;8701;50.150;8.756;2023-02-28T18:03:17;6.90;;;5.20;;
17171;SDS011;8701;50.150;8.756;2023-02-28T18:07:26;11.03;;;5.50;;
17171;SDS011;8701;50.150;8.756;2023-02-28T18:11:29;7.33;;;5.27;;
17171;SDS011;8701;50.150;8.756;2023-02-28T18:15:42;8.20;;;4.70;;
17171;SDS011;8701;50.150;8.756;2023-02-28T18:19:45;8.03;;;5.40;;
17171;SDS011;8701;50.150;8.756;2023-02-28T18:23:50;6.73;;;4.70;;
17171;SDS011;8701;50.150;8.756;2023-02-28T18:32:48;5.60;;;4.40;;
17171;SDS011;8701;50.150;8.756;2023-02-28T18:36:58;6.63;;;4.40;;
17171;SDS011;8701;50.150;8.756;2023-02-28T18:41:01;7.17;;;4.90;;
17171;SDS011;8701;50.150;8.756;2023-02-28T18:45:06;7.93;;;4.97;;
17171;SDS011;8701;50.150;8.756;2023-02-28T18:49:09;6.40;;;4.83;;
17171;SDS011;8701;50.150;8.756;2023-02-28T18:53:12;8.40;;;4.87;;
17171;SDS011;8701;50.150;8.756;2023-02-28T18:57:15;7.33;;;4.80;;
17171;SDS011;8701;50.150;8.756;2023-02-28T19:01:19;5.80;;;4.20;;
17171;SDS011;8701;50.150;8.756;2023-02-28T19:05:23;10.50;;;5.23;;
17171;SDS011;8701;50.150;8.756;2023-02-28T19:09:28;9.63;;;6.00;;
17171;SDS011;8701;50.150;8.756;2023-02-28T19:13:31;10.43;;;5.93;;
17171;SDS011;8701;50.150;8.756;2023-02-28T19:17:35;11.70;;;6.90;;
17171;SDS011;8701;50.150;8.756;2023-02-28T19:21:38;9.03;;;6.20;;
17171;SDS011;8701;50.150;8.756;2023-02-28T19:25:45;9.20;;;5.17;;
17171;SDS011;8701;50.150;8.756;2023-02-28T19:29:49;8.90;;;5.83;;
17171;SDS011;8701;50.150;8.756;2023-02-28T19:33:52;16.20;;;7.23;;
17171;SDS011;8701;50.150;8.756;2023-02-28T19:37:55;9.57;;;6.20;;
17171;SDS011;8701;50.150;8.756;2023-02-28T19:41:59;10.10;;;5.10;;
17171;SDS011;8701;50.150;8.756;2023-02-28T19:46:02;5.27;;;4.60;;
17171;SDS011;8701;50.150;8.756;2023-02-28T19:50:06;7.73;;;4.87;;
17171;SDS011;8701;50.150;8.756;2023-02-28T19:54:14;8.03;;;5.30;;
17171;SDS011;8701;50.150;8.756;2023-02-28T19:58:18;6.87;;;5.10;;
17171;SDS011;8701;50.150;8.756;2023-02-28T20:02:24;14.27;;;5.13;;
17171;SDS011;8701;50.150;8.756;2023-02-28T20:06:27;8.77;;;5.67;;
17171;SDS011;8701;50.150;8.756;2023-02-28T20:10:32;7.57;;;5.30;;
17171;SDS011;8701;50.150;8.756;2023-02-28T20:14:37;7.40;;;5.50;;
17171;SDS011;8701;50.150;8.756;2023-02-28T20:18:39;6.93;;;5.00;;
17171;SDS011;8701;50.150;8.756;2023-02-28T20:22:43;12.90;;;5.63;;
17171;SDS011;8701;50.150;8.756;2023-02-28T20:26:45;8.27;;;5.80;;
17171;SDS011;8701;50.150;8.756;2023-02-28T20:30:50;9.57;;;6.77;;
17171;SDS011;8701;50.150;8.756;2023-02-28T20:34:53;9.10;;;6.27;;
17171;SDS011;8701;50.150;8.756;2023-02-28T20:39:00;8.37;;;5.73;;
17171;SDS011;8701;50.150;8.756;2023-02-28T20:43:02;8.90;;;5.37;;
17171;SDS011;8701;50.150;8.756;2023-02-28T20:47:06;8.07;;;5.27;;
17171;SDS011;8701;50.150;8.756;2023-02-28T20:51:28;8.90;;;6.33;;
17171;SDS011;8701;50.150;8.756;2023-02-28T20:55:31;8.53;;;5.60;;
17171;SDS011;8701;50.150;8.756;2023-02-28T20:59:37;6.93;;;5.63;;
17171;SDS011;8701;50.150;8.756;2023-02-28T21:08:20;10.30;;;7.00;;
17171;SDS011;8701;50.150;8.756;2023-02-28T21:12:34;9.93;;;6.60;;
17171;SDS011;8701;50.150;8.756;2023-02-28T21:16:36;8.30;;;6.30;;
17171;SDS011;8701;50.150;8.756;2023-02-28T21:20:40;9.00;;;6.70;;
17171;SDS011;8701;50.150;8.756;2023-02-28T21:24:43;10.50;;;7.17;;
17171;SDS011;8701;50.150;8.756;2023-02-28T21:28:47;10.07;;;6.07;;
17171;SDS011;8701;50.150;8.756;2023-02-28T21:32:51;12.83;;;6.37;;
17171;SDS011;8701;50.150;8.756;2023-02-28T21:36:54;10.70;;;5.47;;
17171;SDS011;8701;50.150;8.756;2023-02-28T21:41:01;10.27;;;6.47;;
17171;SDS011;8701;50.150;8.756;2023-02-28T21:45:05;11.10;;;7.03;;
17171;SDS011;8701;50.150;8.756;2023-02-28T21:49:08;13.83;;;7.17;;
17171;SDS011;8701;50.150;8.756;2023-02-28T21:53:11;8.00;;;6.30;;
17171;SDS011;8701;50.150;8.756;2023-02-28T21:57:13;11.03;;;6.63;;
17171;SDS011;8701;50.150;8.756;2023-02-28T22:01:17;10.80;;;7.07;;
17171;SDS011;8701;50.150;8.756;2023-02-28T22:05:20;9.17;;;6.67;;
17171;SDS011;8701;50.150;8.756;2023-02-28T22:09:24;13.10;;;7.07;;
17171;SDS011;8701;50.150;8.756;2023-02-28T22:13:27;10.73;;;6.80;;
17171;SDS011;8701;50.150;8.756;2023-02-28T22:17:29;11.57;;;6.67;;
17171;SDS011;8701;50.150;8.756;2023-02-28T22:21:32;11.57;;;7.57;;
17171;SDS011;8701;50.150;8.756;2023-02-28T22:25:36;9.93;;;7.03;;
17171;SDS011;8701;50.150;8.756;2023-02-28T22:29:39;13.03;;;6.53;;
17171;SDS011;8701;50.150;8.756;2023-02-28T22:33:43;9.97;;;7.00;;
17171;SDS011;8701;50.150;8.756;2023-02-28T22:37:47;12.83;;;7.40;;
17171;SDS011;8701;50.150;8.756;2023-02-28T22:41:50;12.77;;;6.57;;
17171;SDS011;8701;50.150;8.756;2023-02-28T22:45:55;9.67;;;7.20;;
17171;SDS011;8701;50.150;8.756;2023-02-28T22:49:57;11.57;;;7.17;;
17171;SDS011;8701;50.150;8.756;2023-02-28T22:53:59;11.37;;;7.10;;
17171;SDS011;8701;50.150;8.756;2023-02-28T22:58:03;11.00;;;7.30;;
17171;SDS011;8701;50.150;8.756;2023-02-28T23:02:05;13.57;;;7.43;;
17171;SDS011;8701;50.150;8.756;2023-02-28T23:06:11;10.70;;;7.23;;
17171;SDS011;8701;50.150;8.756;2023-02-28T23:10:15;10.30;;;6.83;;
17171;SDS011;8701;50.150;8.756;2023-02-28T23:14:20;9.57;;;6.60;;
17171;SDS011;8701;50.150;8.756;2023-02-28T23:18:22;10.37;;;7.07;;
17171;SDS011;8701;50.150;8.756;2023-02-28T23:22:24;14.40;;;7.40;;
17171;SDS011;8701;50.150;8.756;2023-02-28T23:26:27;12.80;;;6.80;;
17171;SDS011;8701;50.150;8.756;2023-02-28T23:30:32;14.57;;;7.70;;
17171;SDS011;8701;50.150;8.756;2023-02-28T23:34:34;14.20;;;8.03;;
17171;SDS011;8701;50.150;8.756;2023-02-28T23:38:37;11.10;;;7.13;;
17171;SDS011;8701;50.150;8.756;2023-02-28T23:42:40;10.03;;;6.83;;
17171;SDS011;8701;50.150;8.756;2023-02-28T23:46:44;11.20;;;6.53;;
17171;SDS011;8701;50.150;8.756;2023-02-28T23:50:47;10.60;;;7.00;;
17171;SDS011;8701;50.150;8.756;2023-02-28T23:54:49;10.60;;;7.30;;
17171;SDS011;8701;50.150;8.756;2023-02-28T23:58:53;17.23;;;8.50;;
